sensor_id;sensor_type;location;lat;lon;timestamp;temperature;humidity
32296;DHT22;18781;51.550;5.418;2022-11-15T00:01:24;11.10;72.40
32296;DHT22;18781;51.550;5.418;2022-11-15T00:03:53;11.10;72.50
32296;DHT22;18781;51.550;5.418;2022-11-15T00:06:18;11.10;72.70
32296;DHT22;18781;51.550;5.418;2022-11-15T00:08:44;11.20;72.60
32296;DHT22;18781;51.550;5.418;2022-11-15T00:11:11;11.20;72.70
32296;DHT22;18781;51.550;5.418;2022-11-15T00:13:37;11.20;72.80
32296;DHT22;18781;51.550;5.418;2022-11-15T00:16:03;11.20;72.70
32296;DHT22;18781;51.550;5.418;2022-11-15T00:18:29;11.20;72.90
32296;DHT22;18781;51.550;5.418;2022-11-15T00:20:55;11.30;73.10
32296;DHT22;18781;51.550;5.418;2022-11-15T00:23:21;11.30;73.00
32296;DHT22;18781;51.550;5.418;2022-11-15T00:25:55;11.30;73.10
32296;DHT22;18781;51.550;5.418;2022-11-15T00:28:20;11.40;73.80
32296;DHT22;18781;51.550;5.418;2022-11-15T00:30:46;11.40;73.30
32296;DHT22;18781;51.550;5.418;2022-11-15T00:33:12;11.50;73.30
32296;DHT22;18781;51.550;5.418;2022-11-15T00:35:37;11.50;73.30
32296;DHT22;18781;51.550;5.418;2022-11-15T00:38:03;11.50;73.40
32296;DHT22;18781;51.550;5.418;2022-11-15T00:40:29;11.50;73.40
32296;DHT22;18781;51.550;5.418;2022-11-15T00:42:54;11.60;73.40
32296;DHT22;18781;51.550;5.418;2022-11-15T00:45:20;11.60;73.40
32296;DHT22;18781;51.550;5.418;2022-11-15T00:47:46;11.70;73.50
32296;DHT22;18781;51.550;5.418;2022-11-15T00:50:12;11.70;73.60
32296;DHT22;18781;51.550;5.418;2022-11-15T00:52:38;11.70;73.50
32296;DHT22;18781;51.550;5.418;2022-11-15T00:55:04;11.80;73.60
32296;DHT22;18781;51.550;5.418;2022-11-15T00:57:30;11.80;73.60
32296;DHT22;18781;51.550;5.418;2022-11-15T00:59:55;11.80;73.60
32296;DHT22;18781;51.550;5.418;2022-11-15T01:02:21;11.90;73.70
32296;DHT22;18781;51.550;5.418;2022-11-15T01:04:47;11.90;73.70
32296;DHT22;18781;51.550;5.418;2022-11-15T01:07:12;11.90;73.70
32296;DHT22;18781;51.550;5.418;2022-11-15T01:09:38;12.00;73.80
32296;DHT22;18781;51.550;5.418;2022-11-15T01:12:04;12.00;73.90
32296;DHT22;18781;51.550;5.418;2022-11-15T01:14:29;12.00;74.00
32296;DHT22;18781;51.550;5.418;2022-11-15T01:16:55;12.10;74.00
32296;DHT22;18781;51.550;5.418;2022-11-15T01:19:21;12.10;74.00
32296;DHT22;18781;51.550;5.418;2022-11-15T01:21:49;12.10;74.00
32296;DHT22;18781;51.550;5.418;2022-11-15T01:24:15;12.20;74.30
32296;DHT22;18781;51.550;5.418;2022-11-15T01:26:41;12.20;74.20
32296;DHT22;18781;51.550;5.418;2022-11-15T01:29:07;12.20;74.20
32296;DHT22;18781;51.550;5.418;2022-11-15T01:31:32;12.30;74.80
32296;DHT22;18781;51.550;5.418;2022-11-15T01:33:58;12.30;74.30
32296;DHT22;18781;51.550;5.418;2022-11-15T01:36:23;12.30;74.20
32296;DHT22;18781;51.550;5.418;2022-11-15T01:38:56;12.40;74.30
32296;DHT22;18781;51.550;5.418;2022-11-15T01:41:25;12.40;74.80
32296;DHT22;18781;51.550;5.418;2022-11-15T01:43:53;12.40;74.40
32296;DHT22;18781;51.550;5.418;2022-11-15T01:48:48;12.50;74.30
32296;DHT22;18781;51.550;5.418;2022-11-15T01:51:19;12.50;74.30
32296;DHT22;18781;51.550;5.418;2022-11-15T01:53:47;12.50;74.50
32296;DHT22;18781;51.550;5.418;2022-11-15T01:56:18;12.50;74.40
32296;DHT22;18781;51.550;5.418;2022-11-15T01:58:45;12.60;74.70
32296;DHT22;18781;51.550;5.418;2022-11-15T02:01:12;12.60;74.60
32296;DHT22;18781;51.550;5.418;2022-11-15T02:03:50;12.60;74.60
32296;DHT22;18781;51.550;5.418;2022-11-15T02:06:17;12.60;75.40
32296;DHT22;18781;51.550;5.418;2022-11-15T02:08:44;12.70;74.80
32296;DHT22;18781;51.550;5.418;2022-11-15T02:11:10;12.70;74.80
32296;DHT22;18781;51.550;5.418;2022-11-15T02:13:36;12.70;74.80
32296;DHT22;18781;51.550;5.418;2022-11-15T02:19:29;12.80;75.50
32296;DHT22;18781;51.550;5.418;2022-11-15T02:24:52;12.90;75.90
32296;DHT22;18781;51.550;5.418;2022-11-15T02:27:28;12.90;75.70
32296;DHT22;18781;51.550;5.418;2022-11-15T02:32:48;13.00;76.00
32296;DHT22;18781;51.550;5.418;2022-11-15T02:35:36;13.00;75.70
32296;DHT22;18781;51.550;5.418;2022-11-15T02:38:34;13.10;75.80
32296;DHT22;18781;51.550;5.418;2022-11-15T02:41:04;13.10;76.20
32296;DHT22;18781;51.550;5.418;2022-11-15T02:43:36;13.10;75.50
32296;DHT22;18781;51.550;5.418;2022-11-15T02:49:22;13.20;75.80
32296;DHT22;18781;51.550;5.418;2022-11-15T02:51:50;13.20;75.30
32296;DHT22;18781;51.550;5.418;2022-11-15T02:54:22;13.20;75.50
32296;DHT22;18781;51.550;5.418;2022-11-15T02:56:49;13.30;75.90
32296;DHT22;18781;51.550;5.418;2022-11-15T02:59:46;13.30;75.60
32296;DHT22;18781;51.550;5.418;2022-11-15T03:08:31;13.40;76.10
32296;DHT22;18781;51.550;5.418;2022-11-15T03:11:07;13.40;76.30
32296;DHT22;18781;51.550;5.418;2022-11-15T03:13:44;13.50;76.00
32296;DHT22;18781;51.550;5.418;2022-11-15T03:16:33;13.50;75.90
32296;DHT22;18781;51.550;5.418;2022-11-15T03:19:26;13.50;76.40
32296;DHT22;18781;51.550;5.418;2022-11-15T03:21:56;13.50;76.00
32296;DHT22;18781;51.550;5.418;2022-11-15T03:24:23;13.50;75.70
32296;DHT22;18781;51.550;5.418;2022-11-15T03:26:52;13.60;75.70
32296;DHT22;18781;51.550;5.418;2022-11-15T03:29:29;13.60;75.80
32296;DHT22;18781;51.550;5.418;2022-11-15T03:32:30;13.60;76.30
32296;DHT22;18781;51.550;5.418;2022-11-15T03:35:00;13.70;76.60
32296;DHT22;18781;51.550;5.418;2022-11-15T03:37:34;13.70;75.90
32296;DHT22;18781;51.550;5.418;2022-11-15T03:40:02;13.70;76.20
32296;DHT22;18781;51.550;5.418;2022-11-15T03:45:17;13.70;75.90
32296;DHT22;18781;51.550;5.418;2022-11-15T03:47:59;13.70;76.10
32296;DHT22;18781;51.550;5.418;2022-11-15T03:50:26;13.80;76.40
32296;DHT22;18781;51.550;5.418;2022-11-15T03:52:54;13.80;75.70
32296;DHT22;18781;51.550;5.418;2022-11-15T03:55:20;13.80;75.80
32296;DHT22;18781;51.550;5.418;2022-11-15T03:57:49;13.80;75.70
32296;DHT22;18781;51.550;5.418;2022-11-15T04:00:15;13.80;75.80
32296;DHT22;18781;51.550;5.418;2022-11-15T04:02:41;13.80;75.60
32296;DHT22;18781;51.550;5.418;2022-11-15T04:05:07;13.90;75.70
32296;DHT22;18781;51.550;5.418;2022-11-15T04:07:32;13.90;75.70
32296;DHT22;18781;51.550;5.418;2022-11-15T04:09:58;13.90;75.80
32296;DHT22;18781;51.550;5.418;2022-11-15T04:12:36;13.90;75.80
32296;DHT22;18781;51.550;5.418;2022-11-15T04:15:05;13.90;76.10
32296;DHT22;18781;51.550;5.418;2022-11-15T04:17:45;13.90;75.80
32296;DHT22;18781;51.550;5.418;2022-11-15T04:20:17;14.00;75.80
32296;DHT22;18781;51.550;5.418;2022-11-15T04:23:03;14.00;75.90
32296;DHT22;18781;51.550;5.418;2022-11-15T04:25:49;14.00;75.80
32296;DHT22;18781;51.550;5.418;2022-11-15T04:28:16;14.00;75.90
32296;DHT22;18781;51.550;5.418;2022-11-15T04:30:41;14.00;75.80
32296;DHT22;18781;51.550;5.418;2022-11-15T04:33:07;14.00;75.80
32296;DHT22;18781;51.550;5.418;2022-11-15T04:35:32;14.00;75.80
32296;DHT22;18781;51.550;5.418;2022-11-15T04:37:59;14.10;75.80
32296;DHT22;18781;51.550;5.418;2022-11-15T04:40:24;14.10;75.90
32296;DHT22;18781;51.550;5.418;2022-11-15T04:42:50;14.00;75.80
32296;DHT22;18781;51.550;5.418;2022-11-15T04:45:15;14.10;75.80
32296;DHT22;18781;51.550;5.418;2022-11-15T04:47:44;14.10;75.80
32296;DHT22;18781;51.550;5.418;2022-11-15T04:50:10;14.10;75.90
32296;DHT22;18781;51.550;5.418;2022-11-15T04:52:41;14.10;75.80
32296;DHT22;18781;51.550;5.418;2022-11-15T04:55:08;14.10;75.80
32296;DHT22;18781;51.550;5.418;2022-11-15T04:57:34;14.10;76.30
32296;DHT22;18781;51.550;5.418;2022-11-15T04:59:59;14.10;75.60
32296;DHT22;18781;51.550;5.418;2022-11-15T05:02:25;14.10;75.60
32296;DHT22;18781;51.550;5.418;2022-11-15T05:05:10;14.10;75.60
32296;DHT22;18781;51.550;5.418;2022-11-15T05:07:36;14.10;75.60
32296;DHT22;18781;51.550;5.418;2022-11-15T05:10:02;14.10;75.70
32296;DHT22;18781;51.550;5.418;2022-11-15T05:12:27;14.20;75.80
32296;DHT22;18781;51.550;5.418;2022-11-15T05:14:53;14.10;75.80
32296;DHT22;18781;51.550;5.418;2022-11-15T05:17:18;14.20;75.90
32296;DHT22;18781;51.550;5.418;2022-11-15T05:19:44;14.20;75.90
32296;DHT22;18781;51.550;5.418;2022-11-15T05:22:10;14.20;75.90
32296;DHT22;18781;51.550;5.418;2022-11-15T05:24:35;14.20;75.90
32296;DHT22;18781;51.550;5.418;2022-11-15T05:27:01;14.20;75.90
32296;DHT22;18781;51.550;5.418;2022-11-15T05:29:26;14.20;75.80
32296;DHT22;18781;51.550;5.418;2022-11-15T05:31:52;14.20;75.80
32296;DHT22;18781;51.550;5.418;2022-11-15T05:34:18;14.20;75.80
32296;DHT22;18781;51.550;5.418;2022-11-15T05:36:44;14.20;75.80
32296;DHT22;18781;51.550;5.418;2022-11-15T05:39:11;14.20;75.90
32296;DHT22;18781;51.550;5.418;2022-11-15T05:41:41;14.20;75.80
32296;DHT22;18781;51.550;5.418;2022-11-15T05:44:11;14.20;75.90
32296;DHT22;18781;51.550;5.418;2022-11-15T05:46:39;14.20;75.90
32296;DHT22;18781;51.550;5.418;2022-11-15T05:49:07;14.20;75.90
32296;DHT22;18781;51.550;5.418;2022-11-15T05:51:34;14.20;76.50
32296;DHT22;18781;51.550;5.418;2022-11-15T05:54:00;14.30;76.00
32296;DHT22;18781;51.550;5.418;2022-11-15T05:56:26;14.20;75.90
32296;DHT22;18781;51.550;5.418;2022-11-15T05:58:53;14.30;75.90
32296;DHT22;18781;51.550;5.418;2022-11-15T06:01:20;14.20;75.80
32296;DHT22;18781;51.550;5.418;2022-11-15T06:03:46;14.20;75.90
32296;DHT22;18781;51.550;5.418;2022-11-15T06:06:11;14.20;75.90
32296;DHT22;18781;51.550;5.418;2022-11-15T06:08:37;14.20;75.90
32296;DHT22;18781;51.550;5.418;2022-11-15T06:11:06;14.20;75.90
32296;DHT22;18781;51.550;5.418;2022-11-15T06:13:32;14.30;76.10
32296;DHT22;18781;51.550;5.418;2022-11-15T06:15:58;14.30;76.40
32296;DHT22;18781;51.550;5.418;2022-11-15T06:18:24;14.20;75.80
32296;DHT22;18781;51.550;5.418;2022-11-15T06:20:50;14.30;76.50
32296;DHT22;18781;51.550;5.418;2022-11-15T06:23:15;14.20;75.90
32296;DHT22;18781;51.550;5.418;2022-11-15T06:25:41;14.20;76.00
32296;DHT22;18781;51.550;5.418;2022-11-15T06:28:06;14.20;76.00
32296;DHT22;18781;51.550;5.418;2022-11-15T06:30:32;14.30;76.20
32296;DHT22;18781;51.550;5.418;2022-11-15T06:33:05;14.20;76.10
32296;DHT22;18781;51.550;5.418;2022-11-15T06:35:33;14.30;76.30
32296;DHT22;18781;51.550;5.418;2022-11-15T06:38:07;14.30;76.20
32296;DHT22;18781;51.550;5.418;2022-11-15T06:40:37;14.30;76.40
32296;DHT22;18781;51.550;5.418;2022-11-15T06:43:03;14.30;76.10
32296;DHT22;18781;51.550;5.418;2022-11-15T06:45:29;14.30;76.10
32296;DHT22;18781;51.550;5.418;2022-11-15T06:47:55;14.30;76.10
32296;DHT22;18781;51.550;5.418;2022-11-15T06:50:20;14.30;76.10
32296;DHT22;18781;51.550;5.418;2022-11-15T06:52:46;14.30;76.10
32296;DHT22;18781;51.550;5.418;2022-11-15T06:55:12;14.30;76.00
32296;DHT22;18781;51.550;5.418;2022-11-15T06:57:40;14.30;75.90
32296;DHT22;18781;51.550;5.418;2022-11-15T07:00:11;14.30;75.90
32296;DHT22;18781;51.550;5.418;2022-11-15T07:02:37;14.30;75.80
32296;DHT22;18781;51.550;5.418;2022-11-15T07:05:02;14.30;75.80
32296;DHT22;18781;51.550;5.418;2022-11-15T07:07:28;14.30;75.80
32296;DHT22;18781;51.550;5.418;2022-11-15T07:09:54;14.30;75.70
32296;DHT22;18781;51.550;5.418;2022-11-15T07:12:19;14.30;75.60
32296;DHT22;18781;51.550;5.418;2022-11-15T07:14:45;14.30;75.60
32296;DHT22;18781;51.550;5.418;2022-11-15T07:17:10;14.30;75.60
32296;DHT22;18781;51.550;5.418;2022-11-15T07:19:36;14.30;75.50
32296;DHT22;18781;51.550;5.418;2022-11-15T07:22:01;14.30;75.50
32296;DHT22;18781;51.550;5.418;2022-11-15T07:24:27;14.30;75.60
32296;DHT22;18781;51.550;5.418;2022-11-15T07:26:53;14.30;75.50
32296;DHT22;18781;51.550;5.418;2022-11-15T07:29:18;14.30;75.50
32296;DHT22;18781;51.550;5.418;2022-11-15T07:31:44;14.30;75.50
32296;DHT22;18781;51.550;5.418;2022-11-15T07:34:09;14.30;75.40
32296;DHT22;18781;51.550;5.418;2022-11-15T07:36:35;14.30;75.40
32296;DHT22;18781;51.550;5.418;2022-11-15T07:39:01;14.30;75.40
32296;DHT22;18781;51.550;5.418;2022-11-15T07:41:26;14.30;75.40
32296;DHT22;18781;51.550;5.418;2022-11-15T07:43:52;14.30;75.40
32296;DHT22;18781;51.550;5.418;2022-11-15T07:46:18;14.30;75.30
32296;DHT22;18781;51.550;5.418;2022-11-15T07:48:43;14.30;75.30
32296;DHT22;18781;51.550;5.418;2022-11-15T07:51:13;14.30;75.30
32296;DHT22;18781;51.550;5.418;2022-11-15T07:53:39;14.30;75.40
32296;DHT22;18781;51.550;5.418;2022-11-15T07:56:08;14.20;75.30
32296;DHT22;18781;51.550;5.418;2022-11-15T07:58:33;14.20;75.40
32296;DHT22;18781;51.550;5.418;2022-11-15T08:01:03;14.20;75.30
32296;DHT22;18781;51.550;5.418;2022-11-15T08:03:29;14.20;75.40
32296;DHT22;18781;51.550;5.418;2022-11-15T08:05:54;14.20;75.50
32296;DHT22;18781;51.550;5.418;2022-11-15T08:08:20;14.20;75.50
32296;DHT22;18781;51.550;5.418;2022-11-15T08:10:46;14.20;75.50
32296;DHT22;18781;51.550;5.418;2022-11-15T08:13:12;14.30;75.50
32296;DHT22;18781;51.550;5.418;2022-11-15T08:15:38;14.30;75.50
32296;DHT22;18781;51.550;5.418;2022-11-15T08:18:12;14.20;75.50
32296;DHT22;18781;51.550;5.418;2022-11-15T08:20:39;14.30;75.50
32296;DHT22;18781;51.550;5.418;2022-11-15T08:23:05;14.30;75.40
32296;DHT22;18781;51.550;5.418;2022-11-15T08:25:33;14.30;75.40
32296;DHT22;18781;51.550;5.418;2022-11-15T08:28:03;14.30;75.20
32296;DHT22;18781;51.550;5.418;2022-11-15T08:30:30;14.30;75.30
32296;DHT22;18781;51.550;5.418;2022-11-15T08:32:57;14.30;75.10
32296;DHT22;18781;51.550;5.418;2022-11-15T08:35:24;14.30;75.10
32296;DHT22;18781;51.550;5.418;2022-11-15T08:37:50;14.30;75.10
32296;DHT22;18781;51.550;5.418;2022-11-15T08:40:17;14.30;75.20
32296;DHT22;18781;51.550;5.418;2022-11-15T08:42:46;14.30;75.10
32296;DHT22;18781;51.550;5.418;2022-11-15T08:45:12;14.30;75.00
32296;DHT22;18781;51.550;5.418;2022-11-15T08:47:38;14.30;74.90
32296;DHT22;18781;51.550;5.418;2022-11-15T08:50:04;14.30;75.00
32296;DHT22;18781;51.550;5.418;2022-11-15T08:52:30;14.30;74.90
32296;DHT22;18781;51.550;5.418;2022-11-15T08:54:57;14.30;74.90
32296;DHT22;18781;51.550;5.418;2022-11-15T08:57:22;14.20;74.80
32296;DHT22;18781;51.550;5.418;2022-11-15T08:59:48;14.30;74.90
32296;DHT22;18781;51.550;5.418;2022-11-15T09:02:14;14.30;75.00
32296;DHT22;18781;51.550;5.418;2022-11-15T09:04:41;14.30;74.90
32296;DHT22;18781;51.550;5.418;2022-11-15T09:07:08;14.30;75.00
32296;DHT22;18781;51.550;5.418;2022-11-15T09:09:34;14.30;74.90
32296;DHT22;18781;51.550;5.418;2022-11-15T09:11:59;14.30;74.90
32296;DHT22;18781;51.550;5.418;2022-11-15T09:14:25;14.30;74.80
32296;DHT22;18781;51.550;5.418;2022-11-15T09:16:50;14.30;74.70
32296;DHT22;18781;51.550;5.418;2022-11-15T09:19:16;14.30;74.40
32296;DHT22;18781;51.550;5.418;2022-11-15T09:21:41;14.40;74.50
32296;DHT22;18781;51.550;5.418;2022-11-15T09:24:07;14.40;74.20
32296;DHT22;18781;51.550;5.418;2022-11-15T09:26:33;14.40;74.10
32296;DHT22;18781;51.550;5.418;2022-11-15T09:28:59;14.40;74.20
32296;DHT22;18781;51.550;5.418;2022-11-15T09:31:26;14.40;74.10
32296;DHT22;18781;51.550;5.418;2022-11-15T09:33:52;14.40;74.00
32296;DHT22;18781;51.550;5.418;2022-11-15T09:36:18;14.40;74.00
32296;DHT22;18781;51.550;5.418;2022-11-15T09:38:44;14.40;73.80
32296;DHT22;18781;51.550;5.418;2022-11-15T09:41:17;14.40;73.80
32296;DHT22;18781;51.550;5.418;2022-11-15T09:47:03;14.50;73.80
32296;DHT22;18781;51.550;5.418;2022-11-15T09:49:34;14.50;73.40
32296;DHT22;18781;51.550;5.418;2022-11-15T09:52:00;14.50;73.40
32296;DHT22;18781;51.550;5.418;2022-11-15T09:54:33;14.50;73.20
32296;DHT22;18781;51.550;5.418;2022-11-15T09:57:26;14.50;73.10
32296;DHT22;18781;51.550;5.418;2022-11-15T10:02:41;14.50;71.70
32296;DHT22;18781;51.550;5.418;2022-11-15T10:05:11;14.50;71.90
32296;DHT22;18781;51.550;5.418;2022-11-15T10:07:50;14.60;72.00
32296;DHT22;18781;51.550;5.418;2022-11-15T10:10:39;14.60;71.50
32296;DHT22;18781;51.550;5.418;2022-11-15T10:13:13;14.60;71.00
32296;DHT22;18781;51.550;5.418;2022-11-15T10:15:43;14.60;70.20
32296;DHT22;18781;51.550;5.418;2022-11-15T10:20:59;14.60;69.90
32296;DHT22;18781;51.550;5.418;2022-11-15T10:23:27;14.60;69.20
32296;DHT22;18781;51.550;5.418;2022-11-15T10:25:58;14.60;69.30
32296;DHT22;18781;51.550;5.418;2022-11-15T10:28:27;14.60;68.90
32296;DHT22;18781;51.550;5.418;2022-11-15T10:30:54;14.50;68.70
32296;DHT22;18781;51.550;5.418;2022-11-15T10:33:34;14.50;69.90
32296;DHT22;18781;51.550;5.418;2022-11-15T10:41:37;14.50;68.60
32296;DHT22;18781;51.550;5.418;2022-11-15T10:46:32;14.50;68.50
32296;DHT22;18781;51.550;5.418;2022-11-15T10:49:26;14.50;68.20
32296;DHT22;18781;51.550;5.418;2022-11-15T10:52:12;14.50;67.80
32296;DHT22;18781;51.550;5.418;2022-11-15T10:54:48;14.50;68.10
32296;DHT22;18781;51.550;5.418;2022-11-15T10:57:19;14.50;67.70
32296;DHT22;18781;51.550;5.418;2022-11-15T10:59:48;14.50;67.80
32296;DHT22;18781;51.550;5.418;2022-11-15T11:05:01;14.60;67.80
32296;DHT22;18781;51.550;5.418;2022-11-15T11:07:31;14.60;67.30
32296;DHT22;18781;51.550;5.418;2022-11-15T11:10:05;14.60;67.20
32296;DHT22;18781;51.550;5.418;2022-11-15T11:12:42;14.60;66.90
32296;DHT22;18781;51.550;5.418;2022-11-15T11:15:14;14.60;67.10
32296;DHT22;18781;51.550;5.418;2022-11-15T11:20:40;14.70;67.20
32296;DHT22;18781;51.550;5.418;2022-11-15T11:23:43;14.70;67.00
32296;DHT22;18781;51.550;5.418;2022-11-15T11:35:03;14.80;66.30
32296;DHT22;18781;51.550;5.418;2022-11-15T11:49:25;15.00;66.10
32296;DHT22;18781;51.550;5.418;2022-11-15T11:52:02;15.00;65.90
32296;DHT22;18781;51.550;5.418;2022-11-15T12:00:20;15.10;65.50
32296;DHT22;18781;51.550;5.418;2022-11-15T12:05:35;15.20;64.50
32296;DHT22;18781;51.550;5.418;2022-11-15T12:14:04;15.30;64.50
32296;DHT22;18781;51.550;5.418;2022-11-15T12:16:32;15.30;64.20
32296;DHT22;18781;51.550;5.418;2022-11-15T12:19:01;15.30;64.30
32296;DHT22;18781;51.550;5.418;2022-11-15T12:27:03;15.40;63.90
32296;DHT22;18781;51.550;5.418;2022-11-15T12:29:39;15.40;63.60
32296;DHT22;18781;51.550;5.418;2022-11-15T12:32:33;15.40;63.30
32296;DHT22;18781;51.550;5.418;2022-11-15T12:35:02;15.50;62.80
32296;DHT22;18781;51.550;5.418;2022-11-15T12:42:44;15.60;63.50
32296;DHT22;18781;51.550;5.418;2022-11-15T12:45:37;15.60;63.30
32296;DHT22;18781;51.550;5.418;2022-11-15T12:53:32;15.70;62.10
32296;DHT22;18781;51.550;5.418;2022-11-15T12:58:46;15.70;62.10
32296;DHT22;18781;51.550;5.418;2022-11-15T13:06:50;15.70;61.90
32296;DHT22;18781;51.550;5.418;2022-11-15T13:14:53;15.80;61.30
32296;DHT22;18781;51.550;5.418;2022-11-15T13:19:46;15.80;61.00
32296;DHT22;18781;51.550;5.418;2022-11-15T13:22:12;15.80;60.80
32296;DHT22;18781;51.550;5.418;2022-11-15T13:24:57;15.70;60.80
32296;DHT22;18781;51.550;5.418;2022-11-15T13:27:25;15.70;61.00
32296;DHT22;18781;51.550;5.418;2022-11-15T13:29:50;15.80;61.10
32296;DHT22;18781;51.550;5.418;2022-11-15T13:32:17;15.70;60.90
32296;DHT22;18781;51.550;5.418;2022-11-15T13:34:45;15.80;61.00
32296;DHT22;18781;51.550;5.418;2022-11-15T13:39:48;15.80;60.80
32296;DHT22;18781;51.550;5.418;2022-11-15T13:42:18;15.80;60.90
32296;DHT22;18781;51.550;5.418;2022-11-15T13:44:59;15.80;60.80
32296;DHT22;18781;51.550;5.418;2022-11-15T13:47:26;15.80;60.70
32296;DHT22;18781;51.550;5.418;2022-11-15T13:49:53;15.90;60.90
32296;DHT22;18781;51.550;5.418;2022-11-15T13:52:19;15.80;60.80
32296;DHT22;18781;51.550;5.418;2022-11-15T13:54:56;15.90;60.80
32296;DHT22;18781;51.550;5.418;2022-11-15T14:02:51;15.90;60.60
32296;DHT22;18781;51.550;5.418;2022-11-15T14:05:19;15.90;60.90
32296;DHT22;18781;51.550;5.418;2022-11-15T14:07:57;15.90;60.80
32296;DHT22;18781;51.550;5.418;2022-11-15T14:10:32;15.90;60.30
32296;DHT22;18781;51.550;5.418;2022-11-15T14:12:58;15.90;60.20
32296;DHT22;18781;51.550;5.418;2022-11-15T14:17:55;15.80;60.00
32296;DHT22;18781;51.550;5.418;2022-11-15T14:20:29;15.90;60.20
32296;DHT22;18781;51.550;5.418;2022-11-15T14:23:01;15.80;59.90
32296;DHT22;18781;51.550;5.418;2022-11-15T14:25:32;15.80;60.20
32296;DHT22;18781;51.550;5.418;2022-11-15T14:30:34;15.80;59.60
32296;DHT22;18781;51.550;5.418;2022-11-15T14:33:00;15.80;60.10
32296;DHT22;18781;51.550;5.418;2022-11-15T14:35:26;15.80;60.10
32296;DHT22;18781;51.550;5.418;2022-11-15T14:37:52;15.80;60.30
32296;DHT22;18781;51.550;5.418;2022-11-15T14:40:19;15.80;60.10
32296;DHT22;18781;51.550;5.418;2022-11-15T14:42:47;15.80;60.20
32296;DHT22;18781;51.550;5.418;2022-11-15T14:45:19;15.80;60.10
32296;DHT22;18781;51.550;5.418;2022-11-15T14:47:45;15.80;60.20
32296;DHT22;18781;51.550;5.418;2022-11-15T14:50:13;15.80;60.40
32296;DHT22;18781;51.550;5.418;2022-11-15T14:52:39;15.80;60.40
32296;DHT22;18781;51.550;5.418;2022-11-15T14:55:19;15.80;60.50
32296;DHT22;18781;51.550;5.418;2022-11-15T14:57:45;15.80;60.30
32296;DHT22;18781;51.550;5.418;2022-11-15T15:00:12;15.80;60.50
32296;DHT22;18781;51.550;5.418;2022-11-15T15:02:39;15.80;60.40
32296;DHT22;18781;51.550;5.418;2022-11-15T15:07:39;15.80;60.20
32296;DHT22;18781;51.550;5.418;2022-11-15T15:10:05;15.80;60.40
32296;DHT22;18781;51.550;5.418;2022-11-15T15:12:30;15.80;60.40
32296;DHT22;18781;51.550;5.418;2022-11-15T15:14:56;15.70;60.30
32296;DHT22;18781;51.550;5.418;2022-11-15T15:17:21;15.80;60.50
32296;DHT22;18781;51.550;5.418;2022-11-15T15:19:47;15.70;60.50
32296;DHT22;18781;51.550;5.418;2022-11-15T15:22:15;15.70;60.50
32296;DHT22;18781;51.550;5.418;2022-11-15T15:24:41;15.70;60.40
32296;DHT22;18781;51.550;5.418;2022-11-15T15:27:07;15.70;60.50
32296;DHT22;18781;51.550;5.418;2022-11-15T15:29:33;15.70;60.60
32296;DHT22;18781;51.550;5.418;2022-11-15T15:31:59;15.70;60.60
32296;DHT22;18781;51.550;5.418;2022-11-15T15:34:24;15.70;60.70
32296;DHT22;18781;51.550;5.418;2022-11-15T15:37:26;15.70;60.70
32296;DHT22;18781;51.550;5.418;2022-11-15T15:39:53;15.70;60.80
32296;DHT22;18781;51.550;5.418;2022-11-15T15:42:20;15.70;60.80
32296;DHT22;18781;51.550;5.418;2022-11-15T15:44:46;15.70;60.70
32296;DHT22;18781;51.550;5.418;2022-11-15T15:47:15;15.70;60.90
32296;DHT22;18781;51.550;5.418;2022-11-15T15:49:41;15.70;60.70
32296;DHT22;18781;51.550;5.418;2022-11-15T15:52:06;15.70;60.80
32296;DHT22;18781;51.550;5.418;2022-11-15T15:54:32;15.70;61.00
32296;DHT22;18781;51.550;5.418;2022-11-15T15:56:57;15.70;61.10
32296;DHT22;18781;51.550;5.418;2022-11-15T15:59:23;15.70;61.10
32296;DHT22;18781;51.550;5.418;2022-11-15T16:01:49;15.70;61.20
32296;DHT22;18781;51.550;5.418;2022-11-15T16:04:14;15.70;61.20
32296;DHT22;18781;51.550;5.418;2022-11-15T16:06:40;15.70;61.10
32296;DHT22;18781;51.550;5.418;2022-11-15T16:09:13;15.70;61.10
32296;DHT22;18781;51.550;5.418;2022-11-15T16:11:39;15.70;61.80
32296;DHT22;18781;51.550;5.418;2022-11-15T16:14:04;15.70;61.30
32296;DHT22;18781;51.550;5.418;2022-11-15T16:16:30;15.70;61.30
32296;DHT22;18781;51.550;5.418;2022-11-15T16:18:55;15.70;61.50
32296;DHT22;18781;51.550;5.418;2022-11-15T16:21:21;15.70;61.70
32296;DHT22;18781;51.550;5.418;2022-11-15T16:23:47;15.70;61.80
32296;DHT22;18781;51.550;5.418;2022-11-15T16:26:26;15.60;61.90
32296;DHT22;18781;51.550;5.418;2022-11-15T16:28:52;15.60;62.30
32296;DHT22;18781;51.550;5.418;2022-11-15T16:31:18;15.60;62.30
32296;DHT22;18781;51.550;5.418;2022-11-15T16:33:46;15.60;62.50
32296;DHT22;18781;51.550;5.418;2022-11-15T16:36:19;15.60;62.70
32296;DHT22;18781;51.550;5.418;2022-11-15T16:38:45;15.60;62.90
32296;DHT22;18781;51.550;5.418;2022-11-15T16:41:11;15.60;63.00
32296;DHT22;18781;51.550;5.418;2022-11-15T16:43:37;15.60;63.10
32296;DHT22;18781;51.550;5.418;2022-11-15T16:46:12;15.60;63.30
32296;DHT22;18781;51.550;5.418;2022-11-15T16:48:38;15.50;63.50
32296;DHT22;18781;51.550;5.418;2022-11-15T16:51:04;15.50;63.50
32296;DHT22;18781;51.550;5.418;2022-11-15T16:53:30;15.50;63.60
32296;DHT22;18781;51.550;5.418;2022-11-15T16:55:56;15.50;63.80
32296;DHT22;18781;51.550;5.418;2022-11-15T16:58:22;15.40;63.90
32296;DHT22;18781;51.550;5.418;2022-11-15T17:00:55;15.40;64.00
32296;DHT22;18781;51.550;5.418;2022-11-15T17:03:24;15.40;64.40
32296;DHT22;18781;51.550;5.418;2022-11-15T17:05:50;15.40;64.60
32296;DHT22;18781;51.550;5.418;2022-11-15T17:08:16;15.40;64.50
32296;DHT22;18781;51.550;5.418;2022-11-15T17:10:41;15.30;64.50
32296;DHT22;18781;51.550;5.418;2022-11-15T17:13:11;15.30;64.70
32296;DHT22;18781;51.550;5.418;2022-11-15T17:15:37;15.30;65.10
32296;DHT22;18781;51.550;5.418;2022-11-15T17:18:03;15.30;65.10
32296;DHT22;18781;51.550;5.418;2022-11-15T17:20:29;15.20;65.00
32296;DHT22;18781;51.550;5.418;2022-11-15T17:22:55;15.20;65.20
32296;DHT22;18781;51.550;5.418;2022-11-15T17:25:20;15.20;65.30
32296;DHT22;18781;51.550;5.418;2022-11-15T17:27:46;15.20;65.50
32296;DHT22;18781;51.550;5.418;2022-11-15T17:30:13;15.10;65.50
32296;DHT22;18781;51.550;5.418;2022-11-15T17:32:40;15.10;65.90
32296;DHT22;18781;51.550;5.418;2022-11-15T17:35:06;15.10;66.00
32296;DHT22;18781;51.550;5.418;2022-11-15T17:37:33;15.10;66.00
32296;DHT22;18781;51.550;5.418;2022-11-15T17:39:58;15.10;66.30
32296;DHT22;18781;51.550;5.418;2022-11-15T17:42:24;15.00;66.30
32296;DHT22;18781;51.550;5.418;2022-11-15T17:44:49;15.00;66.40
32296;DHT22;18781;51.550;5.418;2022-11-15T17:47:15;15.00;66.60
32296;DHT22;18781;51.550;5.418;2022-11-15T17:49:41;14.90;66.70